»·PEaware :: TEXAN15 KGEG-KSEA

TEXAN15 :: KGEG-KSEA

FLIGHT INFORMATION

Flight Status: Arrived
Operator: Unknown
More flights by this operator :: More flights under this callsign
Pilot: Indie I. (23336)
Aircraft: BEECH AIRCRAFT T-6A TEXAN
(TEX2)
More flights by this aircraft type
Origin: KGEG Spokane Intl
United States
Destination: KSEA Seattle-Tacoma Intl
United States
More flights between these airports :: More routes between these airports
Route: +GEG6 GEG GLASR1
File this flight plan on PilotEdge
Remarks: request glasr arrival
Altitude:
(Current/Filed)
20,000ft
Speed:
(Current/Filed)
210kts
Departed: 17-Jun-20 06:14 AM
Arrived: 17-Jun-20 06:59 AM
Distance/Time
Traveled:
194nm/0:44
Distance/Time
To Go:
Arrived

Flight Plot

Page will automatically refresh every two minutes.

Flight plan parsing failed; only flown route is shown


Map Options




Map Legend


Flown Route
Filed Route
Departure Airport
Arrival Airport
Navaid (VOR, NDB)
Fix

Horizontal Profiles

Position Reports

Time Latitude Longitude Heading Altitude Ground
Speed
17-Jun-20 05:35 47.625482 -117.533075 225 2375ft 0kts
17-Jun-20 05:36 47.625482 -117.533075 225 2375ft 0kts
17-Jun-20 05:36 47.625477 -117.533081 225 2375ft 0kts
17-Jun-20 05:38 47.625475 -117.533084 224 2375ft 0kts
17-Jun-20 05:38 47.625474 -117.533087 224 2375ft 0kts
17-Jun-20 05:40 47.625414 -117.533173 224 2375ft 0kts
17-Jun-20 05:40 47.625414 -117.533173 224 2375ft 0kts
17-Jun-20 05:41 47.625404 -117.533188 224 2375ft 0kts
17-Jun-20 05:43 47.625402 -117.533191 224 2375ft 0kts
17-Jun-20 05:43 47.625400 -117.533194 223 2375ft 0kts
17-Jun-20 05:47 47.625337 -117.533283 223 2375ft 0kts
17-Jun-20 05:48 47.625335 -117.533286 223 2375ft 0kts
17-Jun-20 05:49 47.625334 -117.533288 223 2375ft 0kts
17-Jun-20 05:50 47.625332 -117.533291 223 2375ft 0kts
17-Jun-20 05:51 47.625330 -117.533293 223 2375ft 0kts
17-Jun-20 05:52 47.625329 -117.533295 223 2375ft 0kts
17-Jun-20 05:53 47.625327 -117.533298 223 2375ft 0kts
17-Jun-20 05:54 47.625325 -117.533300 223 2375ft 0kts
17-Jun-20 05:55 47.625324 -117.533303 223 2375ft 0kts
17-Jun-20 05:56 47.625322 -117.533305 223 2375ft 0kts
17-Jun-20 05:57 47.625320 -117.533307 223 2375ft 0kts
17-Jun-20 05:58 47.625319 -117.533310 223 2375ft 0kts
17-Jun-20 05:59 47.625317 -117.533312 223 2375ft 0kts
17-Jun-20 06:00 47.625315 -117.533315 223 2375ft 0kts
17-Jun-20 06:01 47.625314 -117.533317 223 2375ft 0kts
17-Jun-20 06:02 47.625312 -117.533319 223 2375ft 0kts
17-Jun-20 06:03 47.625310 -117.533322 223 2375ft 0kts
17-Jun-20 06:04 47.625309 -117.533324 223 2375ft 0kts
17-Jun-20 06:05 47.624986 -117.534094 228 2375ft 1kts
17-Jun-20 06:06 47.625302 -117.531781 44 2375ft 10kts
17-Jun-20 06:07 47.630015 -117.524660 45 2375ft 29kts
17-Jun-20 06:08 47.632321 -117.520183 144 2375ft 0kts
17-Jun-20 06:09 47.632319 -117.520180 144 2375ft 0kts
17-Jun-20 06:10 47.632317 -117.520178 144 2375ft 0kts
17-Jun-20 06:11 47.632315 -117.520176 144 2375ft 0kts
17-Jun-20 06:12 47.632162 -117.520028 141 2375ft 11kts
17-Jun-20 06:13 47.629330 -117.521198 224 2375ft 69kts
17-Jun-20 06:14 47.599559 -117.566942 226 3996ft 187kts
17-Jun-20 06:15 47.562195 -117.625763 226 6775ft 201kts
17-Jun-20 06:16 47.552125 -117.698575 295 9403ft 212kts
17-Jun-20 06:17 47.578148 -117.779191 290 11753ft 224kts
17-Jun-20 06:18 47.585764 -117.869256 282 13470ft 215kts
17-Jun-20 06:19 47.593831 -117.957029 278 15843ft 216kts
17-Jun-20 06:20 47.601356 -118.045402 277 18027ft 216kts
17-Jun-20 06:21 47.608954 -118.134217 279 20005ft 220kts
17-Jun-20 06:22 47.618600 -118.225859 277 20077ft 278kts
17-Jun-20 06:23 47.628680 -118.345983 278 20089ft 298kts
17-Jun-20 06:24 47.640593 -118.466935 275 20012ft 295kts
17-Jun-20 06:25 47.650440 -118.586631 279 19998ft 293kts
17-Jun-20 06:26 47.662446 -118.706039 278 20017ft 291kts
17-Jun-20 06:27 47.673442 -118.824871 277 20043ft 290kts
17-Jun-20 06:28 47.681672 -118.944154 276 20068ft 289kts
17-Jun-20 06:29 47.692689 -119.062892 278 20078ft 289kts
17-Jun-20 06:30 47.703146 -119.181941 276 20036ft 292kts
17-Jun-20 06:31 47.718990 -119.349455 278 20054ft 312kts
17-Jun-20 06:32 47.741611 -119.607091 276 20017ft 317kts
17-Jun-20 06:33 47.767255 -119.866831 280 20010ft 318kts
17-Jun-20 06:34 47.791069 -120.125947 276 20057ft 316kts
17-Jun-20 06:35 47.808829 -120.387141 273 20116ft 315kts
17-Jun-20 06:36 47.822647 -120.648394 272 20049ft 318kts
17-Jun-20 06:37 47.835770 -120.910946 274 19983ft 319kts
17-Jun-20 06:38 47.849799 -121.171624 274 20073ft 317kts
17-Jun-20 06:39 47.857442 -121.367021 272 17646ft 266kts
17-Jun-20 06:40 47.862162 -121.474637 278 15444ft 256kts
17-Jun-20 06:41 47.873025 -121.577799 278 13267ft 250kts
17-Jun-20 06:42 47.881588 -121.678581 276 11220ft 241kts
17-Jun-20 06:43 47.875516 -121.771991 257 9046ft 213kts
17-Jun-20 06:44 47.863484 -121.854271 258 7642ft 196kts
17-Jun-20 06:45 47.851692 -121.931608 255 6363ft 191kts
17-Jun-20 06:46 47.840542 -122.004420 257 5495ft 180kts
17-Jun-20 06:47 47.823792 -122.075778 249 4997ft 188kts
17-Jun-20 06:48 47.803533 -122.146204 246 3618ft 176kts
17-Jun-20 06:49 47.785189 -122.211443 245 3630ft 169kts
17-Jun-20 06:50 47.758558 -122.265092 185 3606ft 176kts
17-Jun-20 06:51 47.715677 -122.297123 209 3656ft 176kts
17-Jun-20 06:52 47.669350 -122.306902 181 3577ft 163kts
17-Jun-20 06:53 47.622920 -122.308122 183 3572ft 171kts
17-Jun-20 06:54 47.577715 -122.307590 182 2756ft 137kts
17-Jun-20 06:55 47.541435 -122.307334 179 1917ft 127kts
17-Jun-20 06:56 47.507575 -122.307431 179 939ft 119kts
17-Jun-20 06:57 47.474128 -122.307746 180 703ft 122kts
17-Jun-20 06:58 47.451856 -122.307929 173 436ft 25kts
17-Jun-20 06:59 47.451085 -122.306159 0 436ft 14kts

Navigation Log

Ident Type
Flight plan parsing failed, navigation log unavailable